SWA3323 MYNN-KFLL
Flight info
| Callsign | SWA3323 |
|---|---|
| Flight time | 0h 44m |
| Altitude | 28000 |
| Route | PEACH OLAHS3 |
| Aircraft | B38M/M-SDE1FGHILORVWXY/HB1 |
Departure
| Time | 2026-05-04 02:15 |
|---|---|
| Airport | Lynden Pindling International Airport (MYNN) |
Arrival
| Time | 2026-05-04 02:59 |
|---|---|
| Airport | Fort Lauderdale Hollywood International Airport (KFLL) |
| Time | Latitude | Longitude | Altitude | Speed | Heading |
|---|---|---|---|---|---|
| 2026-05-04 02:05 | 25.05057 | -77.46845 | 28 ft | 0 kts | 347° |
| 2026-05-04 02:07 | 25.05053 | -77.46844 | 28 ft | 1 kts | 347° |
| 2026-05-04 02:08 | 25.05043 | -77.46841 | 28 ft | 2 kts | 338° |
| 2026-05-04 02:08 | 25.05031 | -77.46832 | 28 ft | 2 kts | 314° |
| 2026-05-04 02:08 | 25.05022 | -77.46819 | 28 ft | 2 kts | 292° |
| 2026-05-04 02:08 | 25.05018 | -77.46802 | 28 ft | 2 kts | 271° |
| 2026-05-04 02:09 | 25.05020 | -77.46787 | 28 ft | 1 kts | 250° |
| 2026-05-04 02:09 | 25.05022 | -77.46780 | 28 ft | 1 kts | 241° |
| 2026-05-04 02:09 | 25.05024 | -77.46777 | 28 ft | 0 kts | 244° |
| 2026-05-04 02:12 | 25.05021 | -77.46783 | 28 ft | 2 kts | 244° |
| 2026-05-04 02:12 | 25.05003 | -77.46825 | 28 ft | 9 kts | 244° |
| 2026-05-04 02:12 | 25.04950 | -77.46898 | 28 ft | 15 kts | 221° |
| 2026-05-04 02:13 | 25.04913 | -77.47004 | 28 ft | 17 kts | 303° |
| 2026-05-04 02:13 | 25.05007 | -77.47111 | 28 ft | 20 kts | 315° |
| 2026-05-04 02:13 | 25.05115 | -77.47233 | 28 ft | 23 kts | 314° |
| 2026-05-04 02:13 | 25.05217 | -77.47375 | 27 ft | 23 kts | 277° |
| 2026-05-04 02:14 | 25.05169 | -77.47541 | 27 ft | 8 kts | 220° |
| 2026-05-04 02:14 | 25.05137 | -77.47519 | 27 ft | 9 kts | 137° |
| 2026-05-04 02:14 | 25.04875 | -77.47226 | 28 ft | 105 kts | 135° |
| 2026-05-04 02:14 | 25.04157 | -77.46433 | 143 ft | 177 kts | 133° |
| 2026-05-04 02:15 | 25.03204 | -77.45422 | 889 ft | 206 kts | 137° |
| 2026-05-04 02:15 | 25.02111 | -77.44259 | 1632 ft | 234 kts | 128° |
| 2026-05-04 02:15 | 25.01250 | -77.42600 | 2339 ft | 270 kts | 109° |
| 2026-05-04 02:15 | 25.01023 | -77.40422 | 3075 ft | 306 kts | 82° |
| 2026-05-04 02:16 | 25.01836 | -77.38218 | 3794 ft | 322 kts | 53° |
| 2026-05-04 02:16 | 25.03599 | -77.36647 | 4523 ft | 330 kts | 23° |
| 2026-05-04 02:16 | 25.05829 | -77.36191 | 5243 ft | 331 kts | 354° |
| 2026-05-04 02:16 | 25.08007 | -77.36964 | 5973 ft | 328 kts | 324° |
| 2026-05-04 02:17 | 25.09540 | -77.38752 | 6691 ft | 325 kts | 296° |
| 2026-05-04 02:17 | 25.10122 | -77.41151 | 7420 ft | 326 kts | 272° |
| 2026-05-04 02:17 | 25.10028 | -77.43618 | 8140 ft | 327 kts | 264° |
| 2026-05-04 02:17 | 25.09883 | -77.46112 | 8856 ft | 332 kts | 268° |
| 2026-05-04 02:18 | 25.09967 | -77.48644 | 9577 ft | 333 kts | 275° |
| 2026-05-04 02:18 | 25.10673 | -77.51098 | 10300 ft | 341 kts | 298° |
| 2026-05-04 02:18 | 25.12288 | -77.53023 | 11026 ft | 351 kts | 320° |
| 2026-05-04 02:18 | 25.14334 | -77.54460 | 11646 ft | 355 kts | 327° |
| 2026-05-04 02:19 | 25.16495 | -77.55830 | 12252 ft | 357 kts | 326° |
| 2026-05-04 02:19 | 25.18630 | -77.57287 | 12854 ft | 358 kts | 323° |
| 2026-05-04 02:19 | 25.20726 | -77.58849 | 13465 ft | 361 kts | 321° |
| 2026-05-04 02:19 | 25.22768 | -77.60468 | 14072 ft | 363 kts | 320° |
| 2026-05-04 02:20 | 25.24800 | -77.62137 | 14670 ft | 367 kts | 319° |
| 2026-05-04 02:20 | 25.26862 | -77.63856 | 15272 ft | 370 kts | 319° |
| 2026-05-04 02:20 | 25.28907 | -77.65566 | 15871 ft | 374 kts | 319° |
| 2026-05-04 02:20 | 25.30976 | -77.67295 | 16471 ft | 374 kts | 319° |
| 2026-05-04 02:21 | 25.33089 | -77.69057 | 17079 ft | 378 kts | 319° |
| 2026-05-04 02:21 | 25.35197 | -77.70813 | 17677 ft | 381 kts | 319° |
| 2026-05-04 02:21 | 25.37304 | -77.72565 | 18270 ft | 383 kts | 318° |
| 2026-05-04 02:21 | 25.39444 | -77.74356 | 18867 ft | 385 kts | 316° |
| 2026-05-04 02:22 | 25.41429 | -77.76316 | 19461 ft | 384 kts | 308° |
| 2026-05-04 02:22 | 25.43063 | -77.78619 | 20057 ft | 383 kts | 298° |
| 2026-05-04 02:22 | 25.44252 | -77.81229 | 20654 ft | 377 kts | 287° |
| 2026-05-04 02:22 | 25.44999 | -77.84026 | 21254 ft | 377 kts | 280° |
| 2026-05-04 02:23 | 25.45518 | -77.86855 | 21848 ft | 380 kts | 277° |
| 2026-05-04 02:23 | 25.45993 | -77.89721 | 22444 ft | 382 kts | 277° |
| 2026-05-04 02:23 | 25.46497 | -77.92584 | 23050 ft | 383 kts | 278° |
| 2026-05-04 02:23 | 25.47050 | -77.95484 | 23660 ft | 388 kts | 278° |
| 2026-05-04 02:24 | 25.47636 | -77.98380 | 24267 ft | 391 kts | 279° |
| 2026-05-04 02:24 | 25.48250 | -78.01314 | 24884 ft | 395 kts | 279° |
| 2026-05-04 02:24 | 25.48889 | -78.04304 | 25509 ft | 398 kts | 279° |
| 2026-05-04 02:24 | 25.49529 | -78.07256 | 26118 ft | 400 kts | 279° |
| 2026-05-04 02:25 | 25.50183 | -78.10257 | 26732 ft | 400 kts | 279° |
| 2026-05-04 02:25 | 25.50831 | -78.13225 | 27345 ft | 398 kts | 279° |
| 2026-05-04 02:25 | 25.51483 | -78.16223 | 27824 ft | 400 kts | 279° |
| 2026-05-04 02:25 | 25.52132 | -78.19214 | 27928 ft | 397 kts | 279° |
| 2026-05-04 02:26 | 25.52767 | -78.22136 | 27937 ft | 390 kts | 279° |
| 2026-05-04 02:26 | 25.53398 | -78.25036 | 27942 ft | 391 kts | 279° |
| 2026-05-04 02:26 | 25.54033 | -78.27953 | 27945 ft | 391 kts | 278° |
| 2026-05-04 02:26 | 25.54678 | -78.30911 | 27945 ft | 391 kts | 279° |
| 2026-05-04 02:27 | 25.55311 | -78.33807 | 27946 ft | 386 kts | 279° |
| 2026-05-04 02:27 | 25.55938 | -78.36677 | 27945 ft | 390 kts | 278° |
| 2026-05-04 02:27 | 25.56575 | -78.39609 | 27944 ft | 391 kts | 278° |
| 2026-05-04 02:27 | 25.57212 | -78.42527 | 27944 ft | 390 kts | 278° |
| 2026-05-04 02:28 | 25.57848 | -78.45449 | 27947 ft | 390 kts | 278° |
| 2026-05-04 02:28 | 25.58474 | -78.48342 | 27945 ft | 389 kts | 279° |
| 2026-05-04 02:28 | 25.59104 | -78.51254 | 27946 ft | 389 kts | 279° |
| 2026-05-04 02:28 | 25.59734 | -78.54161 | 27948 ft | 391 kts | 279° |
| 2026-05-04 02:29 | 25.60368 | -78.57085 | 27946 ft | 387 kts | 278° |
| 2026-05-04 02:29 | 25.60998 | -78.59986 | 27946 ft | 389 kts | 279° |
| 2026-05-04 02:29 | 25.61625 | -78.62888 | 27938 ft | 391 kts | 279° |
| 2026-05-04 02:29 | 25.62252 | -78.65787 | 27664 ft | 389 kts | 279° |
| 2026-05-04 02:30 | 25.62887 | -78.68720 | 27060 ft | 389 kts | 278° |
| 2026-05-04 02:30 | 25.63512 | -78.71619 | 26409 ft | 383 kts | 278° |
| 2026-05-04 02:30 | 25.64119 | -78.74435 | 25701 ft | 379 kts | 279° |
| 2026-05-04 02:30 | 25.64725 | -78.77251 | 24966 ft | 375 kts | 279° |
| 2026-05-04 02:31 | 25.65323 | -78.80032 | 24226 ft | 371 kts | 279° |
| 2026-05-04 02:31 | 25.65914 | -78.82788 | 23491 ft | 367 kts | 279° |
| 2026-05-04 02:31 | 25.66496 | -78.85513 | 22760 ft | 364 kts | 279° |
| 2026-05-04 02:31 | 25.67070 | -78.88194 | 22043 ft | 360 kts | 279° |
| 2026-05-04 02:32 | 25.67648 | -78.90891 | 21321 ft | 357 kts | 279° |
| 2026-05-04 02:32 | 25.68219 | -78.93562 | 20599 ft | 354 kts | 279° |
| 2026-05-04 02:32 | 25.68776 | -78.96165 | 19892 ft | 351 kts | 279° |
| 2026-05-04 02:32 | 25.69333 | -78.98776 | 19176 ft | 347 kts | 280° |
| 2026-05-04 02:33 | 25.69883 | -79.01354 | 18459 ft | 344 kts | 280° |
| 2026-05-04 02:33 | 25.70431 | -79.03929 | 17739 ft | 341 kts | 280° |
| 2026-05-04 02:33 | 25.70966 | -79.06446 | 17027 ft | 338 kts | 280° |
| 2026-05-04 02:33 | 25.71502 | -79.08965 | 16311 ft | 335 kts | 280° |
| 2026-05-04 02:34 | 25.72029 | -79.11448 | 15600 ft | 332 kts | 281° |
| 2026-05-04 02:34 | 25.72556 | -79.13932 | 14879 ft | 330 kts | 280° |
| 2026-05-04 02:34 | 25.73075 | -79.16377 | 14164 ft | 328 kts | 280° |
| 2026-05-04 02:34 | 25.73594 | -79.18828 | 13445 ft | 326 kts | 281° |
| 2026-05-04 02:35 | 25.74103 | -79.21242 | 12736 ft | 325 kts | 281° |
| 2026-05-04 02:35 | 25.74613 | -79.23659 | 12021 ft | 323 kts | 281° |
| 2026-05-04 02:35 | 25.75120 | -79.26059 | 11308 ft | 322 kts | 281° |
| 2026-05-04 02:35 | 25.75631 | -79.28474 | 10585 ft | 320 kts | 282° |
| 2026-05-04 02:36 | 25.76183 | -79.30826 | 10014 ft | 315 kts | 284° |
| 2026-05-04 02:36 | 25.76790 | -79.33097 | 9815 ft | 298 kts | 285° |
| 2026-05-04 02:36 | 25.77375 | -79.35206 | 9806 ft | 277 kts | 285° |
| 2026-05-04 02:36 | 25.77919 | -79.37184 | 9671 ft | 263 kts | 284° |
| 2026-05-04 02:37 | 25.78441 | -79.39128 | 9169 ft | 265 kts | 284° |
| 2026-05-04 02:37 | 25.78964 | -79.41105 | 8460 ft | 275 kts | 284° |
| 2026-05-04 02:37 | 25.79507 | -79.43169 | 7734 ft | 282 kts | 284° |
| 2026-05-04 02:37 | 25.80055 | -79.45245 | 7189 ft | 281 kts | 285° |
| 2026-05-04 02:38 | 25.80602 | -79.47317 | 6727 ft | 277 kts | 285° |
| 2026-05-04 02:38 | 25.81135 | -79.49338 | 6274 ft | 274 kts | 285° |
| 2026-05-04 02:38 | 25.81663 | -79.51341 | 5945 ft | 266 kts | 285° |
| 2026-05-04 02:38 | 25.82169 | -79.53256 | 5960 ft | 246 kts | 284° |
| 2026-05-04 02:39 | 25.82636 | -79.55032 | 5978 ft | 229 kts | 285° |
| 2026-05-04 02:39 | 25.83071 | -79.56688 | 5987 ft | 221 kts | 284° |
| 2026-05-04 02:39 | 25.83503 | -79.58337 | 5988 ft | 224 kts | 285° |
| 2026-05-04 02:39 | 25.83951 | -79.59985 | 5986 ft | 223 kts | 287° |
| 2026-05-04 02:40 | 25.84495 | -79.61583 | 5983 ft | 222 kts | 291° |
| 2026-05-04 02:40 | 25.85115 | -79.63171 | 5985 ft | 223 kts | 291° |
| 2026-05-04 02:40 | 25.85745 | -79.64751 | 5986 ft | 222 kts | 292° |
| 2026-05-04 02:40 | 25.86404 | -79.66298 | 5986 ft | 222 kts | 293° |
| 2026-05-04 02:41 | 25.87078 | -79.67838 | 5989 ft | 223 kts | 294° |
| 2026-05-04 02:41 | 25.87750 | -79.69380 | 5983 ft | 215 kts | 293° |
| 2026-05-04 02:41 | 25.88383 | -79.70847 | 5990 ft | 212 kts | 293° |
| 2026-05-04 02:41 | 25.89020 | -79.72334 | 5988 ft | 212 kts | 293° |
| 2026-05-04 02:42 | 25.89650 | -79.73806 | 5988 ft | 210 kts | 293° |
| 2026-05-04 02:42 | 25.90270 | -79.75263 | 5990 ft | 209 kts | 293° |
| 2026-05-04 02:42 | 25.90893 | -79.76725 | 5990 ft | 209 kts | 292° |
| 2026-05-04 02:42 | 25.91519 | -79.78192 | 5990 ft | 212 kts | 292° |
| 2026-05-04 02:43 | 25.92155 | -79.79682 | 5988 ft | 212 kts | 293° |
| 2026-05-04 02:43 | 25.92803 | -79.81206 | 5997 ft | 221 kts | 293° |
| 2026-05-04 02:43 | 25.93460 | -79.82754 | 5992 ft | 222 kts | 292° |
| 2026-05-04 02:43 | 25.94144 | -79.84356 | 6003 ft | 237 kts | 293° |
| 2026-05-04 02:44 | 25.94835 | -79.85974 | 5988 ft | 229 kts | 293° |
| 2026-05-04 02:44 | 25.95523 | -79.87579 | 5999 ft | 227 kts | 293° |
| 2026-05-04 02:44 | 25.96207 | -79.89186 | 5999 ft | 231 kts | 292° |
| 2026-05-04 02:44 | 25.96894 | -79.90796 | 6000 ft | 232 kts | 293° |
| 2026-05-04 02:45 | 25.97583 | -79.92413 | 5998 ft | 230 kts | 293° |
| 2026-05-04 02:45 | 25.98268 | -79.94029 | 6000 ft | 230 kts | 293° |
| 2026-05-04 02:45 | 25.99030 | -79.95605 | 6000 ft | 232 kts | 302° |
| 2026-05-04 02:45 | 26.00073 | -79.97008 | 6001 ft | 235 kts | 310° |
| 2026-05-04 02:46 | 26.01193 | -79.98303 | 6000 ft | 234 kts | 311° |
| 2026-05-04 02:46 | 26.02320 | -79.99625 | 6003 ft | 234 kts | 310° |
| 2026-05-04 02:46 | 26.03415 | -80.00958 | 6003 ft | 233 kts | 309° |
| 2026-05-04 02:46 | 26.04500 | -80.02300 | 6001 ft | 226 kts | 308° |
| 2026-05-04 02:47 | 26.05541 | -80.03589 | 6006 ft | 225 kts | 308° |
| 2026-05-04 02:47 | 26.06573 | -80.04864 | 6005 ft | 223 kts | 309° |
| 2026-05-04 02:47 | 26.07615 | -80.06152 | 6006 ft | 224 kts | 309° |
| 2026-05-04 02:47 | 26.08664 | -80.07449 | 6005 ft | 223 kts | 309° |
| 2026-05-04 02:48 | 26.09707 | -80.08741 | 6006 ft | 223 kts | 308° |
| 2026-05-04 02:48 | 26.10738 | -80.10017 | 6005 ft | 223 kts | 309° |
| 2026-05-04 02:48 | 26.11789 | -80.11318 | 6008 ft | 223 kts | 309° |
| 2026-05-04 02:48 | 26.12810 | -80.12583 | 6009 ft | 222 kts | 309° |
| 2026-05-04 02:49 | 26.13850 | -80.13871 | 6007 ft | 221 kts | 308° |
| 2026-05-04 02:49 | 26.14766 | -80.15243 | 5972 ft | 221 kts | 295° |
| 2026-05-04 02:49 | 26.15150 | -80.16899 | 5631 ft | 223 kts | 271° |
| 2026-05-04 02:49 | 26.15115 | -80.18649 | 5029 ft | 235 kts | 268° |
| 2026-05-04 02:50 | 26.15058 | -80.20483 | 4386 ft | 241 kts | 269° |
| 2026-05-04 02:50 | 26.15044 | -80.22317 | 3941 ft | 235 kts | 270° |
| 2026-05-04 02:50 | 26.15052 | -80.24080 | 3996 ft | 222 kts | 271° |
| 2026-05-04 02:50 | 26.15062 | -80.25772 | 4006 ft | 219 kts | 271° |
| 2026-05-04 02:51 | 26.15067 | -80.27480 | 4010 ft | 217 kts | 271° |
| 2026-05-04 02:51 | 26.15072 | -80.29153 | 4014 ft | 219 kts | 271° |
| 2026-05-04 02:51 | 26.15077 | -80.30859 | 4015 ft | 220 kts | 271° |
| 2026-05-04 02:51 | 26.15083 | -80.32549 | 4010 ft | 216 kts | 271° |
| 2026-05-04 02:52 | 26.15086 | -80.34225 | 4016 ft | 218 kts | 271° |
| 2026-05-04 02:52 | 26.15088 | -80.35918 | 4012 ft | 219 kts | 271° |
| 2026-05-04 02:52 | 26.15087 | -80.37601 | 4011 ft | 218 kts | 270° |
| 2026-05-04 02:52 | 26.14770 | -80.39226 | 3948 ft | 222 kts | 243° |
| 2026-05-04 02:53 | 26.13706 | -80.40507 | 3562 ft | 232 kts | 212° |
| 2026-05-04 02:53 | 26.12132 | -80.41025 | 3050 ft | 239 kts | 186° |
| 2026-05-04 02:53 | 26.10526 | -80.40925 | 2848 ft | 230 kts | 167° |
| 2026-05-04 02:53 | 26.09063 | -80.40241 | 2840 ft | 228 kts | 147° |
| 2026-05-04 02:54 | 26.07888 | -80.39065 | 2839 ft | 227 kts | 128° |
| 2026-05-04 02:54 | 26.07027 | -80.37599 | 2840 ft | 228 kts | 116° |
| 2026-05-04 02:54 | 26.06593 | -80.35941 | 2837 ft | 225 kts | 92° |
| 2026-05-04 02:54 | 26.06884 | -80.34255 | 2840 ft | 221 kts | 68° |
| 2026-05-04 02:55 | 26.07684 | -80.30991 | 2736 ft | 217 kts | 84° |
| 2026-05-04 02:55 | 26.07742 | -80.29366 | 2292 ft | 208 kts | 88° |
| 2026-05-04 02:55 | 26.07744 | -80.27832 | 1831 ft | 184 kts | 87° |
| 2026-05-04 02:56 | 26.07704 | -80.26499 | 1733 ft | 166 kts | 93° |
| 2026-05-04 02:56 | 26.07625 | -80.25229 | 1761 ft | 164 kts | 85° |
| 2026-05-04 02:56 | 26.07701 | -80.24052 | 1590 ft | 141 kts | 84° |
| 2026-05-04 02:56 | 26.07719 | -80.22980 | 1364 ft | 138 kts | 87° |
| 2026-05-04 02:57 | 26.07700 | -80.21917 | 1170 ft | 141 kts | 87° |
| 2026-05-04 02:57 | 26.07707 | -80.20828 | 961 ft | 142 kts | 87° |
| 2026-05-04 02:57 | 26.07700 | -80.19750 | 769 ft | 137 kts | 88° |
| 2026-05-04 02:57 | 26.07701 | -80.18727 | 521 ft | 128 kts | 88° |
| 2026-05-04 02:58 | 26.07700 | -80.17754 | 289 ft | 127 kts | 88° |
| 2026-05-04 02:58 | 26.07697 | -80.16768 | 112 ft | 126 kts | 88° |
| 2026-05-04 02:58 | 26.07691 | -80.15830 | 10 ft | 113 kts | 89° |
| 2026-05-04 02:58 | 26.07686 | -80.15143 | 10 ft | 57 kts | 90° |
| 2026-05-04 02:59 | 26.07626 | -80.14926 | 10 ft | 3 kts | 120° |
| 2026-05-04 02:59 | 26.07621 | -80.14918 | 10 ft | 0 kts | 120° |
| 2026-05-04 03:00 | 26.07619 | -80.14913 | 10 ft | 3 kts | 120° |
| 2026-05-04 03:00 | 26.07577 | -80.14832 | 10 ft | 17 kts | 118° |
| 2026-05-04 03:00 | 26.07561 | -80.14691 | 10 ft | 17 kts | 90° |
| 2026-05-04 03:00 | 26.07561 | -80.14560 | 10 ft | 15 kts | 91° |
| 2026-05-04 03:01 | 26.07559 | -80.14445 | 10 ft | 13 kts | 90° |
| 2026-05-04 03:01 | 26.07559 | -80.14345 | 10 ft | 12 kts | 90° |
| 2026-05-04 03:01 | 26.07549 | -80.14258 | 10 ft | 12 kts | 118° |
| 2026-05-04 03:01 | 26.07485 | -80.14171 | 10 ft | 16 kts | 97° |
| 2026-05-04 03:02 | 26.07484 | -80.14024 | 10 ft | 21 kts | 90° |
| 2026-05-04 03:02 | 26.07470 | -80.13846 | 10 ft | 23 kts | 99° |
| 2026-05-04 03:02 | 26.07447 | -80.13707 | 10 ft | 13 kts | 153° |
| 2026-05-04 03:02 | 26.07358 | -80.13679 | 10 ft | 12 kts | 138° |
| 2026-05-04 03:03 | 26.07343 | -80.13643 | 10 ft | 1 kts | 105° |
| 2026-05-04 03:03 | 26.07343 | -80.13641 | 10 ft | 0 kts | 105° |